createdAt,value
2023-03-06T00:00:32.483Z,3.92
2023-03-06T00:02:59.313Z,3.64
2023-03-06T00:05:27.063Z,3.40
2023-03-06T00:07:53.833Z,3.11
2023-03-06T00:10:23.790Z,3.77
2023-03-06T00:12:56.558Z,3.92
2023-03-06T00:15:24.830Z,3.98
2023-03-06T00:17:52.229Z,3.37
2023-03-06T00:20:19.889Z,3.55
2023-03-06T00:22:46.910Z,3.84
2023-03-06T00:25:16.993Z,4.39
2023-03-06T00:27:44.138Z,4.33
2023-03-06T00:30:16.715Z,4.31
2023-03-06T00:32:43.866Z,4.11
2023-03-06T00:35:12.188Z,3.65
2023-03-06T00:37:44.121Z,3.86
2023-03-06T00:40:16.419Z,3.97
2023-03-06T00:42:43.483Z,4.59
2023-03-06T00:45:11.099Z,4.69
2023-03-06T00:47:38.068Z,4.96
2023-03-06T00:50:05.753Z,5.04
2023-03-06T00:52:32.684Z,5.29
2023-03-06T00:54:59.529Z,5.37
2023-03-06T00:57:26.154Z,4.34
2023-03-06T00:59:53.232Z,4.69
2023-03-06T01:02:20.058Z,5.04
2023-03-06T01:04:47.026Z,5.07
2023-03-06T01:07:13.670Z,4.80
2023-03-06T01:09:41.424Z,4.66
2023-03-06T01:12:08.556Z,4.38
2023-03-06T01:14:35.440Z,4.49
2023-03-06T01:17:02.115Z,4.60
2023-03-06T01:19:28.772Z,4.36
2023-03-06T01:21:57.718Z,3.65
2023-03-06T01:24:24.561Z,3.88
2023-03-06T01:26:51.584Z,3.73
2023-03-06T01:29:18.352Z,4.04
2023-03-06T01:31:46.190Z,4.17
2023-03-06T01:34:12.964Z,3.96
2023-03-06T01:36:39.817Z,3.94
2023-03-06T01:39:06.869Z,3.70
2023-03-06T01:41:33.457Z,4.01
2023-03-06T01:44:00.169Z,3.17
2023-03-06T01:46:32.196Z,3.72
2023-03-06T01:49:25.552Z,4.39
2023-03-06T01:51:55.446Z,4.05
2023-03-06T01:54:35.641Z,4.35
2023-03-06T01:57:36.091Z,4.11
2023-03-06T02:00:14.201Z,4.30
2023-03-06T02:03:09.967Z,4.34
2023-03-06T02:05:37.635Z,4.46
2023-03-06T02:08:06.789Z,4.32
2023-03-06T02:10:34.256Z,4.35
2023-03-06T02:13:01.543Z,4.07
2023-03-06T02:15:30.218Z,3.50
2023-03-06T02:17:57.283Z,3.58
2023-03-06T02:20:27.200Z,2.75
2023-03-06T02:23:29.475Z,3.13
2023-03-06T02:25:58.598Z,3.08
2023-03-06T02:28:25.400Z,3.56
2023-03-06T02:30:54.920Z,3.28
2023-03-06T02:33:24.893Z,3.51
2023-03-06T02:36:02.404Z,3.75
2023-03-06T02:38:42.605Z,3.50
2023-03-06T02:41:09.403Z,3.18
2023-03-06T02:43:39.687Z,3.42
2023-03-06T02:46:07.012Z,3.10
2023-03-06T02:48:33.694Z,3.01
2023-03-06T02:51:00.454Z,3.54
2023-03-06T02:53:27.450Z,3.44
2023-03-06T02:55:54.557Z,3.57
2023-03-06T02:58:21.316Z,3.78
2023-03-06T03:00:49.657Z,3.66
2023-03-06T03:03:17.516Z,3.39
2023-03-06T03:05:44.223Z,3.89
2023-03-06T03:08:10.956Z,3.84
2023-03-06T03:10:37.760Z,3.74
2023-03-06T03:13:04.980Z,3.72
2023-03-06T03:15:31.928Z,3.66
2023-03-06T03:17:58.624Z,3.68
2023-03-06T03:20:25.368Z,3.60
2023-03-06T03:22:54.555Z,3.42
2023-03-06T03:25:23.680Z,3.71
2023-03-06T03:27:50.813Z,3.62
2023-03-06T03:30:17.861Z,3.87
2023-03-06T03:32:44.497Z,3.49
2023-03-06T03:35:11.855Z,3.00
2023-03-06T03:37:38.586Z,2.82
2023-03-06T03:40:06.085Z,2.79
2023-03-06T03:42:32.999Z,2.89
2023-03-06T03:44:59.697Z,3.38
2023-03-06T03:47:26.361Z,3.53
2023-03-06T03:49:53.100Z,3.62
2023-03-06T03:52:19.829Z,3.77
2023-03-06T03:54:46.507Z,3.87
2023-03-06T03:57:13.160Z,3.13
2023-03-06T03:59:39.781Z,3.49
2023-03-06T04:02:06.454Z,3.46
2023-03-06T04:04:33.143Z,2.89
2023-03-06T04:06:59.785Z,3.51
2023-03-06T04:09:26.420Z,3.57
2023-03-06T04:11:53.061Z,3.48
2023-03-06T04:14:19.716Z,3.66
2023-03-06T04:16:46.371Z,4.08
2023-03-06T04:19:13.003Z,4.08
2023-03-06T04:21:39.709Z,4.10
2023-03-06T04:24:06.707Z,4.32
2023-03-06T04:26:33.377Z,4.13
2023-03-06T04:29:00.109Z,4.13
2023-03-06T04:31:26.865Z,3.84
2023-03-06T04:33:53.564Z,3.70
2023-03-06T04:36:38.485Z,3.43
2023-03-06T04:39:05.177Z,3.39
2023-03-06T04:41:31.823Z,3.27
2023-03-06T04:43:58.752Z,3.33
2023-03-06T04:46:26.545Z,3.44
2023-03-06T04:48:53.190Z,3.69
2023-03-06T04:51:20.086Z,3.73
2023-03-06T04:53:46.875Z,3.94
2023-03-06T04:56:13.582Z,3.87
2023-03-06T04:58:40.321Z,4.07
2023-03-06T05:01:07.185Z,4.08
2023-03-06T05:03:33.831Z,4.05
2023-03-06T05:06:00.529Z,3.92
2023-03-06T05:08:27.784Z,3.52
2023-03-06T05:11:00.390Z,3.56
2023-03-06T05:13:28.112Z,3.27
2023-03-06T05:15:55.258Z,3.79
2023-03-06T05:18:22.053Z,3.69
2023-03-06T05:20:48.643Z,3.78
2023-03-06T05:23:15.274Z,3.66
2023-03-06T05:25:42.246Z,3.75
2023-03-06T05:28:09.095Z,3.63
2023-03-06T05:30:36.503Z,3.61
2023-03-06T05:33:03.188Z,3.49
2023-03-06T05:35:29.986Z,3.58
2023-03-06T05:37:56.669Z,3.52
2023-03-06T05:40:23.322Z,3.31
2023-03-06T05:42:49.924Z,3.77
2023-03-06T05:45:16.534Z,3.75
2023-03-06T05:47:43.215Z,3.72
2023-03-06T05:50:10.824Z,3.85
2023-03-06T05:52:38.790Z,3.22
2023-03-06T05:55:05.967Z,3.86
2023-03-06T05:57:32.676Z,4.10
2023-03-06T05:59:59.281Z,4.11
2023-03-06T06:02:25.942Z,3.71
2023-03-06T06:04:52.578Z,3.13
2023-03-06T06:07:19.273Z,2.98
2023-03-06T06:09:45.908Z,2.72
2023-03-06T06:12:14.033Z,3.33
2023-03-06T06:14:41.752Z,3.72
2023-03-06T06:17:08.512Z,3.76
2023-03-06T06:19:37.024Z,3.54
2023-03-06T06:22:03.901Z,3.90
2023-03-06T06:24:32.065Z,4.03
2023-03-06T06:27:03.870Z,4.09
2023-03-06T06:29:31.262Z,3.82
2023-03-06T06:31:58.151Z,4.17
2023-03-06T06:34:25.846Z,4.42
2023-03-06T06:36:53.849Z,4.81
2023-03-06T06:39:22.977Z,4.94
2023-03-06T06:42:05.554Z,5.17
2023-03-06T06:44:38.049Z,4.31
2023-03-06T06:47:24.200Z,4.02
2023-03-06T06:49:53.186Z,4.22
2023-03-06T06:52:19.976Z,4.59
2023-03-06T06:54:46.770Z,5.03
2023-03-06T06:57:13.469Z,5.31
2023-03-06T06:59:40.134Z,4.72
2023-03-06T07:02:06.754Z,4.29
2023-03-06T07:04:33.565Z,4.95
2023-03-06T07:07:00.307Z,5.69
2023-03-06T07:09:27.015Z,6.11
2023-03-06T07:11:53.668Z,6.36
2023-03-06T07:14:20.284Z,6.62
2023-03-06T07:16:46.923Z,6.81
2023-03-06T07:19:14.031Z,6.96
2023-03-06T07:21:41.220Z,7.00
2023-03-06T07:24:08.329Z,7.08
2023-03-06T07:26:35.192Z,7.34
2023-03-06T07:29:03.105Z,7.57
2023-03-06T07:31:32.719Z,7.59
2023-03-06T07:34:00.194Z,7.61
2023-03-06T07:36:27.133Z,7.56
2023-03-06T07:38:53.801Z,7.44
2023-03-06T07:41:22.484Z,7.56
2023-03-06T07:43:49.940Z,7.65
2023-03-06T07:46:20.018Z,7.68
2023-03-06T07:48:46.650Z,7.78
2023-03-06T07:51:17.249Z,7.66
2023-03-06T07:53:44.432Z,7.47
2023-03-06T07:56:11.976Z,7.29
2023-03-06T07:58:41.842Z,7.41
2023-03-06T08:01:12.600Z,7.79
2023-03-06T08:03:39.670Z,7.85
2023-03-06T08:06:18.905Z,7.76
2023-03-06T08:08:47.772Z,7.50
2023-03-06T08:11:17.028Z,6.59
2023-03-06T08:13:44.740Z,6.66
2023-03-06T08:16:12.386Z,6.51
2023-03-06T08:18:39.139Z,6.02
2023-03-06T08:21:10.010Z,6.08
2023-03-06T08:23:37.328Z,6.80
2023-03-06T08:26:07.525Z,7.12
2023-03-06T08:28:35.134Z,7.38
2023-03-06T08:31:12.891Z,7.52
2023-03-06T08:33:40.813Z,7.15
2023-03-06T08:36:07.621Z,7.55
2023-03-06T08:38:34.293Z,7.73
2023-03-06T08:41:00.977Z,7.46
2023-03-06T08:43:27.780Z,7.72
2023-03-06T08:45:59.058Z,8.15
2023-03-06T08:48:26.298Z,8.41
2023-03-06T08:50:53.576Z,8.44
2023-03-06T08:53:30.453Z,8.45
2023-03-06T08:56:03.916Z,8.25
2023-03-06T08:58:34.766Z,8.37
2023-03-06T09:01:01.750Z,7.92
2023-03-06T09:03:28.587Z,6.70
2023-03-06T09:05:55.205Z,7.10
2023-03-06T09:08:21.823Z,7.12
2023-03-06T09:10:48.984Z,7.94
2023-03-06T09:13:15.720Z,8.33
2023-03-06T09:15:42.378Z,8.41
2023-03-06T09:18:09.101Z,8.34
2023-03-06T09:20:36.784Z,7.74
2023-03-06T09:23:03.573Z,8.35
2023-03-06T09:25:30.250Z,8.43
2023-03-06T09:28:10.426Z,8.06
2023-03-06T09:30:40.514Z,7.28
2023-03-06T09:33:07.265Z,7.82
2023-03-06T09:35:34.164Z,7.75
2023-03-06T09:38:00.917Z,7.71
2023-03-06T09:40:41.334Z,7.82
2023-03-06T09:43:24.637Z,7.28
2023-03-06T09:45:53.694Z,7.52
2023-03-06T09:48:27.452Z,7.69
2023-03-06T09:51:02.977Z,7.68
2023-03-06T09:53:46.211Z,7.74
2023-03-06T09:56:26.685Z,7.73
2023-03-06T09:59:13.161Z,7.57
2023-03-06T10:01:45.931Z,7.75
2023-03-06T10:04:40.599Z,7.85
2023-03-06T10:07:22.254Z,7.99
2023-03-06T10:10:02.587Z,7.75
2023-03-06T10:12:42.462Z,7.60
2023-03-06T10:15:21.531Z,7.25
2023-03-06T10:17:48.856Z,6.99
2023-03-06T10:20:16.682Z,7.31
2023-03-06T10:23:01.397Z,7.22
2023-03-06T10:25:54.829Z,7.44
2023-03-06T10:28:36.171Z,7.02
2023-03-06T10:31:18.338Z,7.06
2023-03-06T10:33:55.109Z,7.39
2023-03-06T10:36:28.224Z,7.44
2023-03-06T10:38:57.520Z,7.88
2023-03-06T10:41:31.558Z,7.67
2023-03-06T10:44:01.251Z,7.63
2023-03-06T10:46:32.165Z,7.77
2023-03-06T10:49:02.330Z,7.41
2023-03-06T10:51:31.366Z,7.30
2023-03-06T10:54:01.226Z,7.32
2023-03-06T10:56:35.445Z,7.39
2023-03-06T10:59:19.360Z,6.64
2023-03-06T11:01:55.231Z,7.12
2023-03-06T11:04:26.683Z,7.54
2023-03-06T11:07:16.384Z,7.09
2023-03-06T11:10:01.642Z,6.88
2023-03-06T11:12:35.820Z,6.73
2023-03-06T11:15:14.569Z,6.85
2023-03-06T11:17:58.255Z,7.11
2023-03-06T11:20:51.911Z,7.52
2023-03-06T11:23:34.897Z,7.55
2023-03-06T11:26:16.601Z,7.47
2023-03-06T11:29:07.890Z,7.76
2023-03-06T11:32:14.522Z,7.36
2023-03-06T11:34:59.663Z,7.19
2023-03-06T11:37:31.931Z,7.20
2023-03-06T11:40:01.255Z,7.24
2023-03-06T11:42:39.597Z,7.30
2023-03-06T11:45:24.943Z,7.03
2023-03-06T11:48:03.385Z,6.88
2023-03-06T11:50:41.684Z,7.47
2023-03-06T11:53:15.956Z,7.35
2023-03-06T11:56:00.765Z,7.69
2023-03-06T11:58:39.422Z,7.86
2023-03-06T12:01:12.186Z,7.88
2023-03-06T12:03:44.487Z,8.03
2023-03-06T12:06:22.012Z,8.34
2023-03-06T12:09:03.828Z,8.68
2023-03-06T12:11:45.848Z,8.51
2023-03-06T12:14:32.497Z,8.41
2023-03-06T12:17:05.137Z,8.38
2023-03-06T12:20:02.043Z,8.68
2023-03-06T12:22:40.060Z,8.21
2023-03-06T12:25:18.672Z,8.49
2023-03-06T12:28:06.553Z,8.50
2023-03-06T12:30:42.100Z,8.79
2023-03-06T12:33:22.656Z,8.78
2023-03-06T12:36:15.426Z,8.74
2023-03-06T12:39:00.032Z,8.37
2023-03-06T12:41:41.725Z,8.36
2023-03-06T12:44:30.334Z,8.59
2023-03-06T12:47:20.473Z,8.70
2023-03-06T12:50:07.620Z,8.53
2023-03-06T12:52:35.709Z,8.11
2023-03-06T12:55:07.445Z,8.29
2023-03-06T12:57:34.321Z,8.52
2023-03-06T13:00:01.178Z,8.55
2023-03-06T13:03:19.840Z,8.94
2023-03-06T13:06:11.574Z,9.32
2023-03-06T13:09:10.505Z,9.81
2023-03-06T13:12:08.356Z,9.44
2023-03-06T13:14:42.332Z,8.90
2023-03-06T13:17:24.358Z,8.92
2023-03-06T13:20:13.209Z,8.78
2023-03-06T13:22:43.120Z,8.63
2023-03-06T13:25:35.673Z,8.97
2023-03-06T13:28:04.870Z,9.05
2023-03-06T13:30:34.481Z,8.57
2023-03-06T13:33:01.171Z,8.99
2023-03-06T13:35:30.496Z,9.22
2023-03-06T13:37:59.231Z,9.39
2023-03-06T13:40:32.138Z,9.23
2023-03-06T13:43:07.541Z,9.04
2023-03-06T13:45:40.399Z,9.54
2023-03-06T13:48:30.295Z,9.53
2023-03-06T13:50:56.088Z,9.38
2023-03-06T13:53:51.799Z,9.40
2023-03-06T13:56:45.731Z,9.40
2023-03-06T13:59:39.362Z,9.57
2023-03-06T14:02:36.697Z,9.72
2023-03-06T14:05:12.747Z,9.78
2023-03-06T14:07:45.521Z,9.71
2023-03-06T14:10:22.325Z,9.82
2023-03-06T14:12:48.915Z,9.97
2023-03-06T14:15:41.710Z,10.06
2023-03-06T14:18:22.003Z,9.95
2023-03-06T14:20:54.566Z,10.05
2023-03-06T14:23:21.230Z,10.55
2023-03-06T14:26:12.554Z,10.81
2023-03-06T14:28:39.226Z,10.79
2023-03-06T14:31:17.901Z,10.58
2023-03-06T14:34:21.141Z,11.20
2023-03-06T14:36:50.976Z,10.70
2023-03-06T14:39:37.304Z,10.59
2023-03-06T14:42:06.893Z,10.69
2023-03-06T14:44:33.653Z,10.44
2023-03-06T14:47:22.958Z,10.63
2023-03-06T14:50:25.997Z,10.44
2023-03-06T14:53:16.230Z,10.43
2023-03-06T14:56:05.996Z,10.34
2023-03-06T14:58:38.322Z,10.38
2023-03-06T15:01:10.706Z,10.29
2023-03-06T15:03:50.811Z,10.44
2023-03-06T15:06:29.069Z,10.40
2023-03-06T15:09:19.348Z,10.35
2023-03-06T15:12:00.146Z,10.00
2023-03-06T15:14:36.899Z,9.91
2023-03-06T15:17:22.700Z,10.10
2023-03-06T15:19:52.722Z,9.99
2023-03-06T15:22:40.242Z,10.02
2023-03-06T15:25:18.798Z,9.98
2023-03-06T15:27:59.165Z,9.96
2023-03-06T15:30:36.432Z,9.77
2023-03-06T15:33:29.200Z,9.87
2023-03-06T15:35:58.834Z,9.62
2023-03-06T15:38:44.027Z,9.72
2023-03-06T15:41:24.462Z,9.36
2023-03-06T15:43:51.089Z,9.64
2023-03-06T15:46:17.761Z,9.55
2023-03-06T15:49:01.104Z,9.38
2023-03-06T15:51:32.163Z,9.56
2023-03-06T15:54:11.845Z,9.85
2023-03-06T15:56:42.577Z,9.86
2023-03-06T15:59:24.444Z,9.69
2023-03-06T16:01:52.052Z,9.65
2023-03-06T16:04:20.269Z,9.71
2023-03-06T16:06:46.884Z,9.75
2023-03-06T16:09:14.351Z,9.50
2023-03-06T16:11:44.320Z,9.77
2023-03-06T16:14:20.926Z,10.03
2023-03-06T16:16:48.618Z,10.14
2023-03-06T16:19:25.876Z,10.13
2023-03-06T16:21:53.981Z,10.43
2023-03-06T16:24:20.606Z,10.15
2023-03-06T16:26:52.564Z,10.06
2023-03-06T16:29:24.770Z,9.54
2023-03-06T16:31:52.474Z,9.44
2023-03-06T16:34:19.081Z,9.61
2023-03-06T16:36:47.238Z,9.83
2023-03-06T16:39:17.063Z,9.76
2023-03-06T16:41:43.705Z,9.54
2023-03-06T16:44:10.465Z,9.36
2023-03-06T16:46:40.220Z,9.40
2023-03-06T16:49:06.996Z,9.61
2023-03-06T16:51:33.656Z,9.46
2023-03-06T16:54:00.266Z,9.90
2023-03-06T16:56:26.923Z,9.66
2023-03-06T16:58:53.597Z,9.57
2023-03-06T17:01:20.302Z,9.51
2023-03-06T17:03:47.128Z,9.28
2023-03-06T17:06:20.819Z,8.86
2023-03-06T17:08:49.458Z,8.70
2023-03-06T17:11:17.081Z,8.62
2023-03-06T17:13:48.261Z,8.60
2023-03-06T17:16:15.841Z,8.60
2023-03-06T17:18:45.337Z,8.12
2023-03-06T17:21:14.165Z,7.99
2023-03-06T17:23:40.797Z,7.99
2023-03-06T17:26:19.105Z,8.22
2023-03-06T17:28:46.410Z,8.05
2023-03-06T17:31:17.778Z,7.57
2023-03-06T17:33:44.896Z,7.48
2023-03-06T17:36:11.901Z,7.47
2023-03-06T17:38:38.576Z,7.35
2023-03-06T17:41:07.616Z,7.25
2023-03-06T17:43:34.270Z,7.06
2023-03-06T17:46:09.956Z,7.35
2023-03-06T17:48:38.091Z,7.15
2023-03-06T17:51:05.926Z,7.36
2023-03-06T17:53:33.317Z,6.38
2023-03-06T17:55:59.935Z,6.13
2023-03-06T17:58:27.417Z,6.08
2023-03-06T18:00:54.155Z,6.08
2023-03-06T18:03:21.105Z,6.03
2023-03-06T18:06:05.254Z,5.71
2023-03-06T18:08:32.280Z,5.52
2023-03-06T18:11:03.389Z,5.43
2023-03-06T18:13:31.536Z,5.48
2023-03-06T18:15:58.414Z,5.55
2023-03-06T18:18:25.493Z,5.47
2023-03-06T18:20:52.396Z,5.32
2023-03-06T18:23:19.050Z,4.98
2023-03-06T18:25:45.696Z,4.85
2023-03-06T18:28:12.444Z,5.32
2023-03-06T18:30:40.888Z,5.82
2023-03-06T18:33:07.999Z,5.38
2023-03-06T18:35:35.400Z,4.99
2023-03-06T18:38:02.330Z,4.88
2023-03-06T18:40:28.968Z,4.96
2023-03-06T18:42:55.587Z,5.57
2023-03-06T18:45:22.231Z,5.50
2023-03-06T18:47:48.892Z,5.37
2023-03-06T18:50:15.709Z,4.98
2023-03-06T18:52:43.697Z,4.50
2023-03-06T18:55:10.635Z,4.46
2023-03-06T18:57:37.238Z,4.31
2023-03-06T19:00:05.415Z,4.08
2023-03-06T19:02:32.043Z,4.09
2023-03-06T19:04:58.811Z,4.18
2023-03-06T19:07:25.774Z,4.20
2023-03-06T19:09:55.031Z,4.28
2023-03-06T19:12:21.894Z,4.42
2023-03-06T19:14:48.623Z,4.47
2023-03-06T19:17:15.241Z,5.05
2023-03-06T19:19:41.877Z,4.40
2023-03-06T19:22:08.502Z,4.41
2023-03-06T19:24:35.181Z,5.06
2023-03-06T19:27:01.838Z,4.90
2023-03-06T19:29:30.495Z,4.67
2023-03-06T19:31:57.566Z,5.01
2023-03-06T19:34:24.260Z,4.81
2023-03-06T19:36:51.031Z,4.98
2023-03-06T19:39:17.730Z,4.87
2023-03-06T19:41:46.370Z,4.75
2023-03-06T19:44:13.022Z,4.79
2023-03-06T19:46:39.615Z,4.64
2023-03-06T19:49:06.249Z,4.23
2023-03-06T19:51:32.865Z,4.38
2023-03-06T19:53:59.587Z,4.24
2023-03-06T19:56:28.777Z,4.23
2023-03-06T19:58:56.143Z,4.21
2023-03-06T20:01:25.209Z,4.44
2023-03-06T20:03:56.802Z,4.25
2023-03-06T20:06:23.429Z,4.34
2023-03-06T20:08:50.026Z,4.34
2023-03-06T20:11:25.531Z,4.49
2023-03-06T20:13:52.787Z,3.80
2023-03-06T20:16:19.482Z,4.42
2023-03-06T20:18:46.667Z,4.39
2023-03-06T20:21:14.538Z,4.31
2023-03-06T20:23:41.598Z,4.23
2023-03-06T20:26:11.807Z,4.02
2023-03-06T20:28:39.629Z,4.01
2023-03-06T20:31:16.021Z,4.13
2023-03-06T20:33:43.540Z,3.98
2023-03-06T20:36:15.570Z,3.73
2023-03-06T20:38:43.124Z,4.01
2023-03-06T20:41:22.793Z,4.00
2023-03-06T20:43:52.578Z,4.09
2023-03-06T20:46:21.762Z,3.95
2023-03-06T20:48:50.113Z,3.96
2023-03-06T20:51:23.328Z,3.68
2023-03-06T20:53:52.542Z,3.52
2023-03-06T20:56:24.557Z,3.90
2023-03-06T20:58:52.134Z,3.97
2023-03-06T21:01:23.105Z,4.07
2023-03-06T21:03:49.823Z,4.06
2023-03-06T21:06:17.139Z,4.55
2023-03-06T21:08:43.924Z,4.32
2023-03-06T21:11:10.862Z,4.32
2023-03-06T21:13:37.820Z,3.82
2023-03-06T21:16:10.366Z,4.25
2023-03-06T21:18:37.189Z,4.66
2023-03-06T21:21:25.084Z,3.97
2023-03-06T21:23:52.073Z,4.08
2023-03-06T21:26:21.840Z,4.64
2023-03-06T21:28:49.283Z,4.49
2023-03-06T21:31:18.942Z,5.01
2023-03-06T21:33:47.491Z,4.59
2023-03-06T21:36:14.784Z,5.38
2023-03-06T21:38:41.617Z,4.06
2023-03-06T21:41:11.560Z,4.50
2023-03-06T21:43:38.752Z,4.59
2023-03-06T21:46:06.214Z,5.03
2023-03-06T21:48:33.155Z,4.60
2023-03-06T21:51:08.527Z,5.13
2023-03-06T21:53:36.076Z,5.40
2023-03-06T21:56:03.943Z,5.39
2023-03-06T21:58:31.027Z,5.21
2023-03-06T22:00:57.816Z,5.52
2023-03-06T22:03:24.617Z,5.85
2023-03-06T22:05:51.538Z,5.81
2023-03-06T22:08:19.809Z,5.64
2023-03-06T22:10:48.515Z,5.66
2023-03-06T22:13:15.451Z,5.62
2023-03-06T22:15:52.481Z,5.41
2023-03-06T22:18:19.941Z,5.40
2023-03-06T22:20:46.653Z,5.20
2023-03-06T22:23:13.446Z,5.34
2023-03-06T22:25:40.323Z,5.46
2023-03-06T22:28:07.029Z,5.66
2023-03-06T22:30:33.738Z,5.79
2023-03-06T22:33:00.369Z,5.74
2023-03-06T22:35:27.115Z,4.85
2023-03-06T22:37:53.739Z,5.20
2023-03-06T22:40:20.374Z,5.11
2023-03-06T22:42:47.013Z,5.62
2023-03-06T22:45:13.649Z,5.77
2023-03-06T22:47:40.320Z,5.36
2023-03-06T22:50:07.790Z,5.46
2023-03-06T22:52:34.436Z,5.78
2023-03-06T22:55:01.312Z,5.74
2023-03-06T22:57:27.941Z,5.50
2023-03-06T22:59:54.617Z,5.23
2023-03-06T23:02:21.561Z,5.70
2023-03-06T23:04:49.541Z,5.85
2023-03-06T23:07:16.202Z,5.28
2023-03-06T23:09:47.028Z,5.40
2023-03-06T23:12:14.025Z,5.62
2023-03-06T23:14:40.669Z,5.79
2023-03-06T23:17:07.302Z,5.94
2023-03-06T23:19:33.927Z,5.87
2023-03-06T23:22:00.600Z,5.30
2023-03-06T23:24:27.214Z,5.88
2023-03-06T23:26:53.926Z,5.96
2023-03-06T23:29:20.534Z,6.21
2023-03-06T23:31:47.137Z,6.21
2023-03-06T23:34:13.871Z,6.16
2023-03-06T23:36:40.505Z,5.98
2023-03-06T23:39:07.141Z,5.92
2023-03-06T23:41:33.813Z,5.88
2023-03-06T23:44:00.463Z,5.70
2023-03-06T23:46:27.841Z,6.20
2023-03-06T23:48:55.669Z,6.15
2023-03-06T23:51:23.183Z,6.41
2023-03-06T23:53:56.503Z,6.31
2023-03-06T23:56:25.001Z,6.22
2023-03-06T23:58:51.981Z,6.27
